Time;durP1;ratioP1;P1;durP2;ratioP2;P2;SDS_P1;SDS_P2;PMS_P1;PMS_P2;Temp;Humidity;BMP_temperature;BMP_pressure;BME280_temperature;BME280_humidity;BME280_pressure;Samples;Min_cycle;Max_cycle;Signal;HPM_P1;HPM_P2
2021/05/06 00:01:21;;;;;;;6.07;4.90;;;6.10;80.90;;;;;;5111578;28;20051;-61
2021/05/06 00:14:39;;;;;;;9.27;5.55;;;5.90;82.90;;;;;;5091258;28;20027;-61
2021/05/06 00:33:19;;;;;;;11.32;7.18;;;5.80;83.60;;;;;;5111713;28;20246;-61
2021/05/06 00:35:47;;;;;;;10.63;6.88;;;5.80;83.80;;;;;;5092540;28;20431;-61
2021/05/06 00:38:18;;;;;;;11.65;7.13;;;5.80;83.90;;;;;;5093593;28;20085;-61
2021/05/06 00:57:04;;;;;;;9.60;7.40;;;5.80;83.70;;;;;;5061999;28;20043;-61
2021/05/06 01:02:27;;;;;;;11.07;7.85;;;5.90;83.00;;;;;;5095932;28;20027;-61
2021/05/06 01:04:57;;;;;;;12.00;8.10;;;6.00;83.00;;;;;;5094055;28;20031;-61
2021/05/06 01:10:58;;;;;;;12.18;9.30;;;5.90;84.50;;;;;;5111499;28;20028;-61
2021/05/06 01:12:48;;;;;;;13.65;9.48;;;5.90;83.70;;;;;;5102413;28;20056;-61
2021/05/06 01:15:13;;;;;;;10.32;8.73;;;6.00;84.10;;;;;;5092959;28;20090;-61
2021/05/06 01:17:39;;;;;;;12.07;9.65;;;5.90;84.00;;;;;;5109606;28;20450;-61
2021/05/06 01:20:05;;;;;;;13.30;9.68;;;5.90;84.70;;;;;;5110839;28;20080;-61
2021/05/06 01:22:31;;;;;;;10.32;9.02;;;5.90;84.50;;;;;;5092783;28;20098;-61
2021/05/06 01:24:58;;;;;;;13.85;9.32;;;5.80;84.50;;;;;;5089746;28;20122;-61
2021/05/06 01:27:34;;;;;;;15.70;9.63;;;5.70;85.70;;;;;;5110305;28;20048;-61
2021/05/06 01:30:24;;;;;;;12.95;9.20;;;5.70;85.60;;;;;;5094250;28;20378;-61
2021/05/06 01:32:57;;;;;;;13.68;8.90;;;5.50;85.90;;;;;;5110144;28;20023;-61
2021/05/06 01:35:37;;;;;;;11.75;9.65;;;5.50;86.00;;;;;;5109965;28;20031;-61
2021/05/06 01:38:19;;;;;;;13.65;9.20;;;5.50;86.40;;;;;;5094549;28;20073;-61
2021/05/06 01:58:54;;;;;;;19.02;9.70;;;5.40;87.10;;;;;;5097637;28;20024;-61
2021/05/06 02:01:20;;;;;;;;;;;5.30;86.90;;;;;;5080386;28;20016;-61
2021/05/06 02:03:46;;;;;;;15.43;9.30;;;5.30;87.50;;;;;;5098800;28;19908;-61
2021/05/06 02:06:13;;;;;;;13.68;10.50;;;5.20;87.20;;;;;;5099182;28;20016;-61
2021/05/06 02:08:38;;;;;;;13.98;9.55;;;5.10;87.40;;;;;;5080519;28;20020;-61
2021/05/06 02:11:04;;;;;;;15.07;10.40;;;5.10;87.70;;;;;;5079305;28;20409;-61
2021/05/06 02:13:30;;;;;;;17.98;10.50;;;5.00;87.80;;;;;;5080733;28;20039;-61
2021/05/06 02:16:01;;;;;;;13.63;10.13;;;5.00;87.70;;;;;;5098289;28;20099;-61
2021/05/06 02:18:28;;;;;;;13.57;9.98;;;5.10;87.40;;;;;;5075141;28;20118;-61
2021/05/06 02:20:54;;;;;;;15.35;10.70;;;5.00;87.30;;;;;;5097860;28;20571;-61
2021/05/06 02:23:20;;;;;;;14.25;9.95;;;5.10;87.40;;;;;;5078986;28;20013;-61
2021/05/06 02:25:46;;;;;;;14.07;9.07;;;5.00;87.70;;;;;;5078554;28;20043;-61
2021/05/06 02:28:12;;;;;;;12.45;9.05;;;4.90;87.90;;;;;;5080430;28;20055;-61
2021/05/06 02:30:38;;;;;;;14.80;9.02;;;4.90;87.60;;;;;;5099236;28;20032;-61
2021/05/06 02:33:06;;;;;;;11.65;9.07;;;4.90;87.70;;;;;;5084969;28;20030;-60
2021/05/06 02:35:32;;;;;;;12.07;9.23;;;4.90;88.00;;;;;;5101843;28;20471;-62
2021/05/06 02:37:58;;;;;;;12.98;8.95;;;4.90;87.70;;;;;;5101377;28;20051;-61
2021/05/06 02:40:23;;;;;;;12.93;8.85;;;4.80;87.80;;;;;;5102916;28;20786;-61
2021/05/06 02:42:49;;;;;;;14.25;9.02;;;4.80;87.90;;;;;;5101387;28;20016;-61
2021/05/06 02:45:15;;;;;;;14.80;8.85;;;4.80;87.90;;;;;;5102072;28;20020;-61
2021/05/06 02:47:40;;;;;;;12.80;8.65;;;4.80;87.90;;;;;;5101861;28;20049;-60
2021/05/06 02:50:10;;;;;;;10.77;8.40;;;4.80;87.50;;;;;;5082956;28;20020;-61
2021/05/06 02:52:39;;;;;;;11.15;8.93;;;4.80;87.80;;;;;;5066870;28;20457;-61
2021/05/06 02:55:15;;;;;;;12.52;9.02;;;4.80;87.60;;;;;;5100527;28;20028;-61
2021/05/06 02:57:46;;;;;;;14.27;8.38;;;4.80;87.80;;;;;;5101792;28;20036;-61
2021/05/06 03:02:58;;;;;;;12.70;9.77;;;4.70;87.80;;;;;;5117901;27;20026;-61
2021/05/06 03:05:27;;;;;;;16.35;9.95;;;4.70;88.40;;;;;;5133635;27;20038;-61
2021/05/06 03:08:16;;;;;;;13.32;9.52;;;4.60;88.20;;;;;;5115756;27;20027;-61
2021/05/06 03:24:21;;;;;;;19.15;13.10;;;4.60;88.60;;;;;;5110257;27;20102;-61
2021/05/06 03:26:46;;;;;;;17.52;12.73;;;4.60;88.50;;;;;;5091754;28;20026;-68
2021/05/06 03:29:26;;;;;;;268.02;112.75;;;4.60;88.60;;;;;;5095228;28;20023;-67
2021/05/06 03:35:14;;;;;;;;;;;4.60;88.60;;;;;;5049969;28;20468;-61
2021/05/06 04:15:54;;;;;;;27.85;20.02;;;4.50;90.10;;;;;;5132143;27;20028;-60
2021/05/06 04:18:23;;;;;;;30.67;20.77;;;4.50;89.80;;;;;;5131461;27;20046;-60
2021/05/06 04:26:26;;;;;;;26.58;20.38;;;4.70;89.50;;;;;;5110696;27;20024;-60
2021/05/06 04:29:46;;;;;;;30.67;21.02;;;4.80;89.40;;;;;;5093057;28;20020;-61
2021/05/06 04:37:21;;;;;;;28.33;20.15;;;5.00;88.90;;;;;;5111502;28;20031;-60
2021/05/06 04:39:52;;;;;;;27.10;20.10;;;5.40;88.10;;;;;;5110531;28;20042;-60
2021/05/06 04:42:50;;;;;;;25.33;18.30;;;5.70;87.20;;;;;;5111567;28;20030;-60
2021/05/06 04:55:47;;;;;;;22.65;16.05;;;6.50;84.00;;;;;;5107418;28;20563;-60
2021/05/06 05:03:38;;;;;;;20.42;15.32;;;6.30;84.50;;;;;;5092583;28;20051;-60
2021/05/06 05:06:06;;;;;;;17.75;14.45;;;6.40;84.70;;;;;;5092922;28;20023;-60
2021/05/06 05:08:38;;;;;;;21.35;15.38;;;6.50;84.10;;;;;;5092296;28;20042;-60
2021/05/06 05:13:51;;;;;;;20.75;14.48;;;6.80;83.00;;;;;;5110618;28;20804;-60
2021/05/06 05:19:28;;;;;;;14.80;12.45;;;7.00;82.20;;;;;;5110703;28;20048;-60
2021/05/06 05:25:06;;;;;;;12.80;11.02;;;8.80;76.00;;;;;;5110356;28;20747;-60
2021/05/06 05:27:04;;;;;;;12.77;10.80;;;8.50;76.50;;;;;;5098524;28;20168;-60
2021/05/06 05:29:29;;;;;;;13.40;10.63;;;8.40;76.90;;;;;;5110481;28;20110;-60
2021/05/06 05:31:56;;;;;;;12.65;10.35;;;9.10;74.40;;;;;;5109904;28;20020;-60
2021/05/06 05:34:27;;;;;;;14.60;9.75;;;9.50;73.60;;;;;;5110239;28;20030;-60
2021/05/06 05:36:55;;;;;;;9.30;7.80;;;10.00;70.70;;;;;;5110167;28;20085;-60
2021/05/06 05:39:34;;;;;;;11.35;8.65;;;10.10;71.30;;;;;;5109708;28;20031;-58
2021/05/06 05:54:55;;;;;;;7.57;6.32;;;10.70;68.50;;;;;;5107667;28;20126;-60
2021/05/06 05:57:20;;;;;;;7.40;6.07;;;10.80;68.00;;;;;;5110227;28;20098;-59
2021/05/06 05:59:47;;;;;;;11.07;8.48;;;11.00;68.70;;;;;;5109551;28;20737;-59
2021/05/06 06:02:12;;;;;;;8.32;6.50;;;12.00;66.40;;;;;;5110124;28;20361;-59
2021/05/06 06:04:38;;;;;;;9.98;6.22;;;13.00;62.40;;;;;;5109087;28;20020;-59
2021/05/06 06:07:04;;;;;;;8.35;5.65;;;13.90;59.50;;;;;;5110461;28;20046;-59
2021/05/06 06:09:30;;;;;;;9.55;6.15;;;14.60;57.80;;;;;;5109289;28;20020;-59
2021/05/06 06:11:55;;;;;;;8.18;5.80;;;13.50;60.00;;;;;;5091021;28;20505;-59
2021/05/06 06:14:23;;;;;;;5.97;5.38;;;12.40;63.90;;;;;;5109975;28;20087;-59
2021/05/06 06:16:49;;;;;;;6.72;6.03;;;14.00;60.80;;;;;;5109033;28;20481;-59
2021/05/06 06:19:16;;;;;;;6.40;5.57;;;14.70;57.20;;;;;;5091549;28;20044;-59
2021/05/06 06:21:52;;;;;;;6.78;5.43;;;14.80;56.50;;;;;;5108755;28;20019;-59
2021/05/06 06:24:19;;;;;;;7.57;6.05;;;15.00;55.90;;;;;;5109689;28;20103;-59
2021/05/06 06:26:45;;;;;;;11.10;6.80;;;15.80;56.70;;;;;;5107338;28;20077;-59
2021/05/06 06:29:16;;;;;;;7.55;5.65;;;16.50;55.20;;;;;;5109791;28;20106;-59
2021/05/06 06:31:46;;;;;;;8.48;6.22;;;16.30;54.40;;;;;;5108582;28;20032;-59
2021/05/06 06:34:12;;;;;;;7.40;6.35;;;16.90;52.90;;;;;;5110003;28;20027;-59
2021/05/06 06:36:45;;;;;;;8.45;6.60;;;16.00;54.50;;;;;;5108727;28;20031;-59
2021/05/06 06:39:12;;;;;;;10.32;6.53;;;16.10;54.00;;;;;;5109396;28;20028;-59
2021/05/06 06:41:38;;;;;;;9.77;7.40;;;16.00;54.00;;;;;;5109062;28;20020;-59
2021/05/06 06:44:04;;;;;;;13.23;7.35;;;16.70;53.30;;;;;;5109618;28;20022;-59
2021/05/06 06:46:29;;;;;;;12.93;7.68;;;15.90;53.10;;;;;;5109001;28;20023;-59
2021/05/06 06:48:55;;;;;;;12.20;7.88;;;15.70;55.80;;;;;;5109245;28;20531;-59
2021/05/06 06:51:21;;;;;;;13.40;7.43;;;15.50;55.40;;;;;;5091202;28;20024;-58
2021/05/06 06:53:47;;;;;;;10.98;7.80;;;15.70;54.30;;;;;;5108833;28;20048;-58
2021/05/06 06:56:12;;;;;;;9.80;8.10;;;14.70;57.00;;;;;;5107660;28;20054;-59
2021/05/06 06:58:40;;;;;;;8.45;7.47;;;14.50;57.30;;;;;;5108803;28;20080;-60
2021/05/06 07:01:07;;;;;;;9.80;7.50;;;13.90;60.70;;;;;;5109195;28;20399;-60
2021/05/06 07:03:33;;;;;;;11.10;7.90;;;13.50;60.90;;;;;;5109405;28;20028;-60
2021/05/06 07:05:58;;;;;;;10.50;8.68;;;13.30;61.50;;;;;;5090241;28;20024;-60
2021/05/06 07:08:27;;;;;;;14.27;9.00;;;12.50;63.90;;;;;;5108686;28;20053;-60
2021/05/06 07:10:57;;;;;;;11.63;8.52;;;11.40;67.20;;;;;;5091062;28;20030;-60
2021/05/06 07:13:23;;;;;;;12.93;9.57;;;11.00;68.50;;;;;;5091075;28;20292;-60
2021/05/06 07:15:50;;;;;;;16.33;10.70;;;11.40;67.60;;;;;;5109318;28;20030;-61
2021/05/06 07:18:16;;;;;;;15.35;12.77;;;11.50;67.20;;;;;;5091423;28;20082;-60
2021/05/06 07:20:43;;;;;;;18.13;14.80;;;11.90;67.10;;;;;;5090507;28;20103;-60
2021/05/06 07:23:10;;;;;;;22.33;15.32;;;11.40;67.90;;;;;;5092412;28;20102;-60
2021/05/06 07:25:36;;;;;;;15.77;13.38;;;11.50;67.50;;;;;;5088171;28;20016;-61
2021/05/06 07:28:15;;;;;;;17.58;12.65;;;11.50;66.60;;;;;;5092392;28;20510;-61
2021/05/06 07:30:44;;;;;;;15.82;12.25;;;12.00;65.10;;;;;;5090827;28;20391;-61
2021/05/06 07:33:10;;;;;;;16.48;12.70;;;12.00;65.70;;;;;;5090914;28;20020;-60
2021/05/06 07:35:38;;;;;;;19.13;14.48;;;11.20;68.20;;;;;;5091519;28;20479;-60
2021/05/06 07:38:04;;;;;;;16.30;13.10;;;10.50;70.40;;;;;;5092164;28;20063;-61
2021/05/06 07:40:30;;;;;;;16.98;14.32;;;10.10;71.90;;;;;;5092262;28;20661;-60
2021/05/06 07:42:55;;;;;;;19.35;14.25;;;10.90;70.00;;;;;;5090601;28;20138;-61
2021/05/06 07:45:21;;;;;;;18.38;13.85;;;11.60;66.70;;;;;;5091634;28;20489;-60
2021/05/06 07:47:47;;;;;;;20.08;13.70;;;11.60;66.70;;;;;;5091602;28;20099;-60
2021/05/06 07:50:13;;;;;;;19.27;12.80;;;12.00;66.50;;;;;;5092137;28;20039;-60
2021/05/06 07:52:41;;;;;;;16.33;11.93;;;13.00;62.80;;;;;;5089614;28;20024;-60
2021/05/06 07:55:08;;;;;;;15.45;12.90;;;13.10;61.50;;;;;;5090046;28;20020;-60
2021/05/06 07:57:34;;;;;;;17.33;15.02;;;13.10;61.40;;;;;;5091701;28;20028;-60
2021/05/06 08:00:00;;;;;;;17.00;12.23;;;13.80;61.60;;;;;;5091520;28;20032;-60
2021/05/06 08:02:25;;;;;;;19.42;14.13;;;13.80;60.60;;;;;;5091465;28;20031;-61
2021/05/06 08:04:51;;;;;;;17.50;11.90;;;14.20;60.60;;;;;;5091191;28;20111;-60
2021/05/06 08:07:16;;;;;;;15.95;11.88;;;14.90;58.70;;;;;;5091442;28;20089;-60
2021/05/06 08:09:42;;;;;;;16.52;11.70;;;14.30;59.00;;;;;;5090985;28;20359;-60
2021/05/06 08:12:08;;;;;;;17.15;13.75;;;13.90;59.20;;;;;;5091851;28;20024;-61
2021/05/06 08:14:34;;;;;;;18.83;11.40;;;13.50;60.10;;;;;;5090746;28;20081;-63
2021/05/06 08:16:59;;;;;;;13.82;10.60;;;14.30;59.60;;;;;;5090502;28;20471;-60
2021/05/06 08:19:25;;;;;;;13.48;10.18;;;14.90;56.70;;;;;;5106165;28;20061;-60
2021/05/06 08:21:51;;;;;;;11.68;9.50;;;15.60;55.20;;;;;;5110557;28;20107;-60
2021/05/06 08:24:16;;;;;;;15.90;10.68;;;16.10;55.40;;;;;;5111445;28;20120;-61
2021/05/06 08:26:42;;;;;;;13.40;10.15;;;15.50;55.40;;;;;;5107795;28;20122;-60
2021/05/06 08:29:08;;;;;;;12.88;9.35;;;14.90;58.20;;;;;;5110445;28;20031;-61
2021/05/06 08:31:33;;;;;;;14.32;9.15;;;14.70;58.00;;;;;;5111157;28;20020;-60
2021/05/06 08:33:59;;;;;;;12.73;9.30;;;14.00;58.00;;;;;;5110410;28;20023;-60
2021/05/06 08:36:25;;;;;;;11.63;9.43;;;13.70;59.20;;;;;;5110531;28;20401;-60
2021/05/06 08:38:51;;;;;;;12.52;8.23;;;14.10;57.70;;;;;;5110264;28;20031;-61
2021/05/06 08:41:18;;;;;;;12.80;9.20;;;15.10;56.30;;;;;;5111772;28;20047;-60
2021/05/06 08:43:49;;;;;;;12.48;9.48;;;14.60;56.80;;;;;;5110560;28;20020;-60
2021/05/06 08:46:15;;;;;;;11.80;9.68;;;14.00;59.00;;;;;;5111686;28;20020;-60
2021/05/06 08:48:40;;;;;;;12.80;8.57;;;13.30;59.20;;;;;;5092074;28;20023;-60
2021/05/06 08:51:06;;;;;;;10.10;7.57;;;12.60;60.20;;;;;;5076144;28;20027;-60
2021/05/06 08:53:31;;;;;;;12.18;8.05;;;12.90;59.30;;;;;;5110903;28;20027;-60
2021/05/06 08:55:58;;;;;;;14.30;7.82;;;13.50;56.40;;;;;;5108416;28;20543;-60
2021/05/06 08:58:24;;;;;;;10.88;7.38;;;13.20;56.30;;;;;;5110411;28;20080;-60
2021/05/06 09:00:50;;;;;;;10.88;7.80;;;13.00;55.90;;;;;;5110682;28;20031;-60
2021/05/06 09:03:15;;;;;;;10.10;7.72;;;12.80;58.40;;;;;;5092990;28;20062;-60
2021/05/06 09:06:13;;;;;;;14.48;7.95;;;12.80;58.80;;;;;;5074811;28;20032;-60
2021/05/06 09:08:41;;;;;;;11.68;8.15;;;12.60;59.50;;;;;;5109862;28;20360;-60
2021/05/06 09:11:07;;;;;;;8.30;7.05;;;13.50;57.00;;;;;;5111342;28;20047;-60
2021/05/06 09:13:32;;;;;;;10.93;7.07;;;14.00;55.30;;;;;;5091820;28;20081;-60
2021/05/06 09:15:59;;;;;;;13.63;10.63;;;14.50;53.80;;;;;;5110015;28;20039;-60
2021/05/06 09:18:36;;;;;;;11.40;7.13;;;14.80;52.10;;;;;;5110244;28;20052;-60
2021/05/06 09:21:02;;;;;;;10.88;8.70;;;14.30;52.10;;;;;;5110530;28;20034;-60
2021/05/06 09:23:28;;;;;;;13.85;8.38;;;14.20;54.90;;;;;;5110445;28;20016;-60
2021/05/06 09:25:53;;;;;;;10.40;7.60;;;14.30;52.80;;;;;;5107569;28;20417;-60
2021/05/06 09:28:20;;;;;;;11.02;7.78;;;14.70;52.40;;;;;;5110185;28;20036;-65
2021/05/06 09:30:51;;;;;;;11.48;8.10;;;14.50;50.50;;;;;;5109955;28;20023;-66
2021/05/06 09:33:25;;;;;;;13.05;8.70;;;14.40;52.00;;;;;;5110828;28;20020;-65
2021/05/06 09:35:51;;;;;;;11.00;8.20;;;14.60;50.80;;;;;;5109405;28;20030;-64
2021/05/06 09:38:26;;;;;;;11.43;8.63;;;14.80;49.30;;;;;;5092071;28;20024;-64
2021/05/06 09:40:52;;;;;;;12.45;8.02;;;14.50;51.40;;;;;;5109816;28;20428;-64
2021/05/06 09:43:26;;;;;;;9.90;6.82;;;14.80;50.70;;;;;;5110365;28;20030;-64
2021/05/06 09:45:52;;;;;;;8.45;5.53;;;14.70;49.90;;;;;;5109702;28;20031;-64
2021/05/06 09:48:19;;;;;;;11.18;7.88;;;14.50;49.10;;;;;;5110680;28;20072;-64
2021/05/06 09:50:53;;;;;;;11.23;7.07;;;14.30;51.10;;;;;;5090862;28;20034;-64
2021/05/06 09:53:21;;;;;;;7.93;5.38;;;13.90;49.60;;;;;;5091750;28;20041;-64
2021/05/06 09:55:47;;;;;;;11.93;6.50;;;13.70;49.50;;;;;;5089289;28;20065;-64
2021/05/06 09:58:17;;;;;;;11.70;6.70;;;13.60;49.60;;;;;;5109870;28;20019;-64
2021/05/06 10:00:43;;;;;;;8.93;5.53;;;13.50;49.90;;;;;;5109477;28;20073;-64
2021/05/06 10:03:13;;;;;;;9.50;5.72;;;13.60;48.10;;;;;;5110113;28;20676;-64
2021/05/06 10:05:40;;;;;;;18.95;12.23;;;13.50;48.60;;;;;;5108426;28;20028;-64
2021/05/06 10:08:05;;;;;;;13.82;8.85;;;13.40;50.70;;;;;;5091712;28;20080;-64
2021/05/06 10:10:31;;;;;;;8.90;7.03;;;13.10;50.90;;;;;;5109734;28;20032;-63
2021/05/06 10:12:57;;;;;;;11.70;7.43;;;13.00;51.40;;;;;;5073912;28;20110;-64
2021/05/06 10:15:24;;;;;;;10.05;7.10;;;12.70;52.00;;;;;;5109462;28;20024;-63
2021/05/06 10:17:50;;;;;;;8.80;6.57;;;12.80;53.50;;;;;;5091023;28;20038;-63
2021/05/06 10:20:16;;;;;;;9.55;6.35;;;12.50;52.10;;;;;;5074698;28;20056;-64
2021/05/06 10:22:42;;;;;;;10.63;5.57;;;12.70;52.10;;;;;;5108803;28;20039;-64
2021/05/06 10:25:08;;;;;;;10.98;5.68;;;12.80;51.90;;;;;;5089562;28;20024;-63
2021/05/06 10:27:34;;;;;;;12.73;6.80;;;12.70;52.10;;;;;;5109244;28;20042;-64
2021/05/06 10:30:01;;;;;;;8.30;6.05;;;12.60;52.10;;;;;;5110130;28;20027;-63
2021/05/06 10:32:28;;;;;;;9.32;6.40;;;12.40;52.30;;;;;;5091757;28;20042;-64
2021/05/06 10:34:55;;;;;;;10.25;7.25;;;12.10;52.40;;;;;;5090624;28;20034;-64
2021/05/06 10:37:27;;;;;;;8.38;6.38;;;12.00;54.10;;;;;;5091837;28;20020;-64
2021/05/06 10:39:52;;;;;;;9.95;6.00;;;11.90;54.50;;;;;;5074640;28;20034;-63
2021/05/06 10:42:38;;;;;;;8.52;5.22;;;11.50;53.90;;;;;;5109472;28;20019;-63
2021/05/06 10:45:27;;;;;;;10.60;5.40;;;11.40;53.90;;;;;;5109397;28;20106;-63
2021/05/06 10:47:56;;;;;;;6.55;4.85;;;11.50;54.00;;;;;;5075599;28;20501;-64
2021/05/06 10:50:25;;;;;;;7.35;4.90;;;11.30;53.40;;;;;;5109486;28;20051;-64
2021/05/06 10:52:55;;;;;;;5.72;4.57;;;11.20;53.20;;;;;;5113282;28;20031;-64
2021/05/06 10:55:49;;;;;;;9.80;6.05;;;11.50;53.00;;;;;;5092867;28;20023;-64
2021/05/06 10:58:27;;;;;;;10.60;6.63;;;11.80;53.20;;;;;;5095407;28;20023;-64
2021/05/06 11:01:13;;;;;;;7.63;5.75;;;12.00;53.20;;;;;;5113091;28;20374;-65
2021/05/06 11:03:39;;;;;;;10.20;6.75;;;12.30;54.10;;;;;;5112287;28;20062;-64
2021/05/06 11:06:07;;;;;;;9.77;6.60;;;12.40;53.40;;;;;;5113328;28;20025;-64
2021/05/06 11:08:35;;;;;;;10.75;7.00;;;12.60;54.80;;;;;;5113321;28;20099;-64
2021/05/06 11:11:01;;;;;;;8.02;5.72;;;12.80;54.90;;;;;;5113073;28;20016;-64
2021/05/06 11:13:28;;;;;;;5.20;3.90;;;12.20;56.40;;;;;;5112915;28;20050;-64
2021/05/06 11:16:17;;;;;;;5.55;3.70;;;11.60;59.60;;;;;;5112415;28;20024;-64
2021/05/06 11:18:49;;;;;;;4.80;3.80;;;11.20;61.40;;;;;;5111236;28;20035;-64
2021/05/06 11:21:29;;;;;;;5.88;4.20;;;11.10;61.20;;;;;;5113230;28;20024;-64
2021/05/06 11:24:14;;;;;;;6.05;4.32;;;11.30;60.20;;;;;;5112415;28;20019;-64
2021/05/06 11:27:09;;;;;;;21.63;13.70;;;11.10;60.30;;;;;;5070510;28;20023;-64
2021/05/06 11:29:37;;;;;;;11.88;8.02;;;10.80;62.30;;;;;;5091340;28;20024;-64
2021/05/06 11:32:03;;;;;;;3.75;3.15;;;10.70;62.00;;;;;;5092645;28;20028;-64
2021/05/06 11:34:30;;;;;;;8.27;5.70;;;10.50;61.60;;;;;;5091758;28;20088;-65
2021/05/06 11:37:13;;;;;;;5.45;3.33;;;10.40;62.10;;;;;;5090217;28;20119;-65
2021/05/06 11:39:46;;;;;;;5.07;2.95;;;10.30;61.20;;;;;;5074061;28;20095;-65
2021/05/06 11:42:13;;;;;;;3.70;2.72;;;10.00;63.40;;;;;;5091916;28;20032;-65
2021/05/06 11:44:38;;;;;;;4.40;3.30;;;10.70;63.40;;;;;;5090953;28;20016;-65
2021/05/06 11:47:04;;;;;;;5.28;3.38;;;10.90;61.70;;;;;;5092021;28;20085;-65
2021/05/06 11:49:30;;;;;;;4.70;3.67;;;10.90;63.10;;;;;;5073385;28;20359;-65
2021/05/06 11:51:55;;;;;;;4.75;3.30;;;9.60;63.90;;;;;;5089844;28;20032;-65
2021/05/06 11:54:23;;;;;;;6.50;4.00;;;9.90;64.90;;;;;;5073539;28;20028;-65
2021/05/06 11:56:57;;;;;;;7.47;4.80;;;9.90;63.40;;;;;;5070822;28;20036;-65
2021/05/06 11:59:24;;;;;;;6.90;4.70;;;9.90;61.00;;;;;;5091590;28;20112;-65
2021/05/06 12:01:50;;;;;;;9.18;4.97;;;10.30;60.10;;;;;;5091186;28;20383;-65
2021/05/06 12:04:31;;;;;;;5.03;4.03;;;10.60;61.10;;;;;;5090036;28;20070;-65
2021/05/06 12:06:57;;;;;;;6.05;4.22;;;11.00;61.20;;;;;;5091146;28;20032;-65
2021/05/06 12:09:29;;;;;;;7.25;4.20;;;11.20;60.60;;;;;;5091506;28;20025;-65
2021/05/06 12:11:55;;;;;;;8.65;4.43;;;11.10;60.10;;;;;;5091186;28;20035;-65
2021/05/06 12:14:31;;;;;;;5.05;4.10;;;11.10;59.60;;;;;;5091296;28;20032;-65
2021/05/06 12:16:56;;;;;;;15.13;9.73;;;11.50;60.40;;;;;;5091082;28;20131;-65
2021/05/06 12:19:22;;;;;;;10.65;6.75;;;11.80;60.70;;;;;;5090416;28;20542;-65
2021/05/06 12:21:53;;;;;;;6.68;3.85;;;11.60;59.30;;;;;;5091115;28;20073;-65
2021/05/06 12:24:33;;;;;;;5.68;4.10;;;11.50;59.10;;;;;;5093820;28;20042;-65
2021/05/06 12:27:13;;;;;;;6.40;4.30;;;11.50;58.90;;;;;;5108907;28;20031;-65
2021/05/06 12:29:39;;;;;;;5.88;4.07;;;11.30;58.80;;;;;;5092490;28;20062;-65
2021/05/06 12:32:04;;;;;;;6.05;3.58;;;11.20;59.00;;;;;;5111717;28;20408;-65
2021/05/06 12:34:33;;;;;;;5.88;3.58;;;11.10;59.00;;;;;;5093014;28;20470;-65
2021/05/06 12:37:00;;;;;;;7.60;4.03;;;11.00;59.30;;;;;;5092949;28;20381;-65
2021/05/06 12:39:28;;;;;;;6.82;4.40;;;11.00;59.50;;;;;;5092947;28;20032;-65
2021/05/06 12:41:55;;;;;;;7.28;3.67;;;11.00;60.00;;;;;;5110295;28;20020;-66
2021/05/06 12:44:43;;;;;;;5.30;3.78;;;10.70;57.90;;;;;;5110093;28;20046;-65
2021/05/06 12:47:13;;;;;;;5.70;3.95;;;10.60;58.30;;;;;;5111282;28;20373;-66
2021/05/06 12:49:39;;;;;;;5.70;4.03;;;11.10;57.90;;;;;;5092429;28;20031;-65
2021/05/06 12:52:04;;;;;;;6.78;4.50;;;11.40;57.90;;;;;;5111570;28;20035;-65
2021/05/06 12:54:35;;;;;;;7.15;3.92;;;11.40;58.20;;;;;;5110660;28;20026;-65
2021/05/06 12:57:16;;;;;;;5.80;3.80;;;11.50;57.90;;;;;;5111657;27;20167;-67
2021/05/06 12:59:49;;;;;;;10.23;4.65;;;11.30;57.40;;;;;;5127866;27;20979;-68
2021/05/06 13:02:15;;;;;;;153.23;68.63;;;11.50;57.20;;;;;;5101124;27;20104;-71
2021/05/06 13:04:48;;;;;;;47.88;23.10;;;12.00;56.60;;;;;;5124743;27;20525;-66
2021/05/06 13:07:17;;;;;;;;;;;12.00;55.90;;;;;;5119388;27;20065;-66
2021/05/06 13:09:50;;;;;;;7.18;5.20;;;11.00;58.20;;;;;;5121428;27;19907;-67
2021/05/06 13:12:16;;;;;;;;;;;11.00;59.10;;;;;;5124971;27;20466;-66
2021/05/06 13:15:02;;;;;;;7.97;4.80;;;11.50;57.60;;;;;;5118001;27;19965;-67
2021/05/06 13:17:33;;;;;;;7.22;4.68;;;11.10;57.50;;;;;;5113142;27;20032;-67
2021/05/06 13:20:11;;;;;;;6.80;3.97;;;11.10;57.80;;;;;;5101444;28;20476;-67
2021/05/06 13:22:37;;;;;;;8.32;4.80;;;11.10;57.50;;;;;;5067873;28;20063;-66
2021/05/06 13:25:03;;;;;;;7.75;4.93;;;11.30;58.30;;;;;;5107071;27;20107;-66
2021/05/06 13:27:29;;;;;;;8.93;4.78;;;11.70;57.40;;;;;;5121787;27;20038;-66
2021/05/06 13:29:59;;;;;;;9.13;4.85;;;11.70;56.10;;;;;;5117110;27;20015;-66
2021/05/06 13:32:35;;;;;;;6.70;4.47;;;11.70;57.90;;;;;;5120893;27;20458;-67
2021/05/06 13:35:00;;;;;;;6.47;4.53;;;12.00;55.70;;;;;;5121961;27;20096;-67
2021/05/06 13:37:42;;;;;;;9.55;4.30;;;12.10;56.20;;;;;;5124619;27;20028;-66
2021/05/06 13:40:08;;;;;;;7.10;4.88;;;12.00;55.40;;;;;;5118160;27;20055;-66
2021/05/06 13:42:35;;;;;;;7.47;4.50;;;11.50;58.10;;;;;;5100360;28;20019;-66
2021/05/06 13:45:01;;;;;;;6.15;4.60;;;11.50;57.00;;;;;;5116103;27;20038;-66
2021/05/06 13:47:27;;;;;;;6.90;4.45;;;11.20;57.80;;;;;;5119185;27;20030;-66
2021/05/06 13:49:52;;;;;;;10.77;4.70;;;11.30;57.60;;;;;;5119913;27;20454;-66
2021/05/06 13:52:19;;;;;;;6.20;4.55;;;11.00;58.80;;;;;;5100753;28;20377;-66
2021/05/06 13:54:45;;;;;;;7.15;4.40;;;11.00;58.30;;;;;;5113543;27;20031;-66
2021/05/06 13:57:11;;;;;;;7.93;4.35;;;11.10;58.00;;;;;;5119411;27;20022;-66
2021/05/06 13:59:36;;;;;;;21.55;15.52;;;11.40;57.60;;;;;;5103329;27;20447;-67
2021/05/06 14:02:02;;;;;;;451.23;218.00;;;11.50;57.30;;;;;;5119937;27;20020;-68
2021/05/06 14:04:28;;;;;;;63.33;28.83;;;11.70;57.00;;;;;;5105235;28;20026;-67
2021/05/06 14:06:53;;;;;;;10.88;7.15;;;11.90;56.20;;;;;;5119954;27;20015;-67
2021/05/06 14:09:19;;;;;;;9.20;5.28;;;11.20;58.30;;;;;;5115503;27;20035;-66
2021/05/06 14:11:46;;;;;;;9.15;5.47;;;10.50;60.70;;;;;;5117830;28;20019;-67
2021/05/06 14:14:12;;;;;;;7.50;4.78;;;10.40;60.70;;;;;;5116066;28;20024;-67
2021/05/06 14:16:38;;;;;;;10.10;5.45;;;10.40;60.40;;;;;;5115746;28;20353;-64
2021/05/06 14:19:07;;;;;;;7.47;5.03;;;10.40;60.70;;;;;;5084843;28;20065;-65
2021/05/06 14:21:37;;;;;;;9.60;5.07;;;10.70;59.70;;;;;;5100087;28;20024;-67
2021/05/06 14:24:03;;;;;;;8.70;5.15;;;10.50;59.80;;;;;;5119308;28;20019;-65
2021/05/06 14:26:29;;;;;;;8.82;5.00;;;10.90;58.80;;;;;;5117589;27;20102;-65
2021/05/06 14:28:55;;;;;;;10.77;5.32;;;11.10;58.70;;;;;;5124398;27;20433;-65
2021/05/06 14:31:20;;;;;;;9.07;4.90;;;10.60;59.00;;;;;;5122718;27;20030;-65
2021/05/06 14:33:46;;;;;;;8.80;5.20;;;10.40;60.50;;;;;;5122265;27;20086;-65
2021/05/06 14:36:12;;;;;;;8.30;5.18;;;10.60;59.90;;;;;;5124577;27;20021;-65
2021/05/06 14:38:38;;;;;;;10.65;5.13;;;10.70;60.00;;;;;;5096707;27;20040;-66
2021/05/06 14:41:04;;;;;;;8.43;5.45;;;10.50;60.10;;;;;;5121609;27;20034;-66
2021/05/06 14:43:30;;;;;;;7.40;5.28;;;10.50;60.70;;;;;;5100880;28;20016;-65
2021/05/06 14:45:55;;;;;;;9.50;5.38;;;10.70;59.90;;;;;;5101524;28;20015;-65
2021/05/06 14:48:21;;;;;;;8.02;5.10;;;10.70;60.40;;;;;;5084133;28;20382;-66
2021/05/06 14:50:47;;;;;;;8.90;4.97;;;10.70;60.30;;;;;;5100371;28;20054;-66
2021/05/06 14:53:12;;;;;;;8.50;5.32;;;10.50;59.60;;;;;;5092307;28;20046;-66
2021/05/06 14:55:38;;;;;;;13.85;5.65;;;10.40;60.70;;;;;;5109998;28;20103;-67
2021/05/06 14:58:04;;;;;;;8.23;5.75;;;10.50;60.00;;;;;;5113602;28;20547;-66
2021/05/06 15:00:30;;;;;;;7.95;5.72;;;10.60;60.20;;;;;;5115782;27;20034;-65
2021/05/06 15:02:58;;;;;;;6.70;5.20;;;10.70;59.90;;;;;;5110995;28;20019;-69
2021/05/06 15:05:24;;;;;;;8.68;6.28;;;10.70;60.20;;;;;;5090545;28;20053;-65
2021/05/06 15:07:50;;;;;;;8.32;5.95;;;10.60;60.50;;;;;;5099290;28;20028;-67
2021/05/06 15:10:15;;;;;;;13.32;7.50;;;10.50;62.10;;;;;;5092093;28;20023;-66
2021/05/06 15:12:46;;;;;;;9.63;6.70;;;10.40;63.20;;;;;;5094652;27;20030;-69
2021/05/06 15:15:12;;;;;;;22.67;13.57;;;10.20;65.00;;;;;;5091282;28;20490;-70
2021/05/06 15:17:37;;;;;;;16.70;10.32;;;10.00;65.50;;;;;;5103725;28;20039;-70
2021/05/06 15:20:04;;;;;;;9.32;7.15;;;10.00;65.70;;;;;;5098643;28;20123;-69
2021/05/06 15:22:29;;;;;;;8.52;6.90;;;10.00;65.70;;;;;;5108790;28;20387;-69
2021/05/06 15:24:55;;;;;;;8.93;7.45;;;10.00;66.30;;;;;;5099203;28;20020;-69
2021/05/06 15:27:21;;;;;;;9.95;7.45;;;9.80;65.70;;;;;;5091842;28;20032;-68
2021/05/06 15:29:46;;;;;;;8.57;7.10;;;9.70;67.10;;;;;;5096025;28;20083;-69
2021/05/06 15:32:12;;;;;;;9.27;7.22;;;9.60;67.50;;;;;;5064108;28;20043;-68
2021/05/06 15:34:39;;;;;;;12.27;7.05;;;9.50;66.90;;;;;;5078035;28;20028;-69
2021/05/06 15:37:05;;;;;;;9.20;7.30;;;9.50;67.00;;;;;;5093269;28;20031;-69
2021/05/06 15:39:31;;;;;;;7.78;6.97;;;9.40;67.00;;;;;;5111011;28;20075;-69
2021/05/06 15:41:56;;;;;;;9.38;7.50;;;9.40;68.00;;;;;;5111430;28;20042;-69
2021/05/06 15:44:22;;;;;;;8.70;6.85;;;9.50;67.60;;;;;;5111461;28;20052;-68